Seara, Brazil
Current Conditions -  °F | °C
As of 12:00 PM on Friday 28 Nov 2014 (Local Time) from SBCH Reporting Station
Few Clouds Few Clouds  
Wind Chill: 82°   Ceiling: Unl
Heat Index: 84°   Visibility: 6mi
Dew Point: 64°   Wind: 8mph
Humidity: 54%   Direction: 40°NE
Pressure: 30.03"   Gusts: NA
Location:  27.15°S, 52.31°W
Report Text: SBCH 281400Z 04007KT 9999 FEW025 28/18 Q1017
Loading
Personal Weather Stations






























Interactive Weather Map New forecast layout! Learn more

10-Day Weather Forecast

Advertisements
Track Severe Weather on mobile